createdAt,value
2017-10-28T00:01:53.011Z,100028
2017-10-28T00:04:06.834Z,100021
2017-10-28T00:06:14.174Z,100009
2017-10-28T00:08:19.874Z,100007
2017-10-28T00:10:26.084Z,100000
2017-10-28T00:12:31.493Z,100001
2017-10-28T00:14:39.185Z,100001
2017-10-28T00:16:44.947Z,100008
2017-10-28T00:18:50.462Z,99998
2017-10-28T00:20:57.868Z,99996
2017-10-28T00:23:04.858Z,100004
2017-10-28T00:25:11.417Z,99993
2017-10-28T00:27:19.078Z,99989
2017-10-28T00:29:25.264Z,99983
2017-10-28T00:31:36.043Z,99989
2017-10-28T00:35:48.803Z,99988
2017-10-28T00:37:55.464Z,99981
2017-10-28T00:40:02.428Z,99961
2017-10-28T00:42:11.942Z,99962
2017-10-28T00:44:19.663Z,99952
2017-10-28T00:46:26.381Z,99962
2017-10-28T00:48:34.596Z,99960
2017-10-28T00:50:41.392Z,99955
2017-10-28T00:52:46.900Z,99941
2017-10-28T00:54:54.427Z,99943
2017-10-28T00:57:01.019Z,99932
2017-10-28T00:59:07.761Z,99952
2017-10-28T01:01:19.932Z,99956
2017-10-28T01:03:25.830Z,99942
2017-10-28T01:05:31.654Z,99944
2017-10-28T01:07:42.637Z,99941
2017-10-28T01:09:48.748Z,99941
2017-10-28T01:11:55.782Z,99943
2017-10-28T01:14:04.413Z,99944
2017-10-28T01:16:12.699Z,99936
2017-10-28T01:18:20.020Z,99943
2017-10-28T01:20:27.321Z,99924
2017-10-28T01:22:35.310Z,99923
2017-10-28T01:24:42.614Z,99926
2017-10-28T01:26:49.598Z,99909
2017-10-28T01:28:57.961Z,99902
2017-10-28T01:31:05.499Z,99895
2017-10-28T01:33:13.059Z,99893
2017-10-28T01:35:18.989Z,99897
2017-10-28T01:37:25.024Z,99880
2017-10-28T01:39:30.937Z,99881
2017-10-28T01:41:38.823Z,99870
2017-10-28T01:43:45.277Z,99886
2017-10-28T01:45:50.646Z,99879
2017-10-28T01:47:56.498Z,99861
2017-10-28T01:50:04.096Z,99874
2017-10-28T01:52:13.783Z,99849
2017-10-28T01:54:20.023Z,99831
2017-10-28T01:56:26.051Z,99842
2017-10-28T01:58:37.812Z,99851
2017-10-28T02:00:45.311Z,99835
2017-10-28T02:02:52.941Z,99824
2017-10-28T02:04:58.927Z,99823
2017-10-28T02:07:05.332Z,99834
2017-10-28T02:09:14.688Z,99837
2017-10-28T02:11:21.024Z,99848
2017-10-28T02:13:28.373Z,99831
2017-10-28T02:15:38.037Z,99837
2017-10-28T02:17:44.211Z,99813
2017-10-28T02:19:50.273Z,99820
2017-10-28T02:21:56.678Z,99825
2017-10-28T02:24:03.109Z,99809
2017-10-28T02:26:13.221Z,99809
2017-10-28T02:28:19.069Z,99818
